North Plains, Oregon
Current Conditions -  °F | °C
As of 3:53 AM on Saturday 25 Oct 2014 (Local Time) from KHIO Reporting Station
Clear Clear  
Wind Chill: 43°   Ceiling: Unl
Heat Index: 46°   Visibility: 8mi
Dew Point: 46°   Wind: 6mph
Humidity: 100%   Direction: 300°WNW
Pressure: 29.51"   Gusts: NA
Location:  45.6°N, 122.99°W
Report Text: KHIO 251053Z AUTO 30005KT 8SM CLR 08/08 A2951 RMK AO2 SLP995 T00780078 TSNO
Loading
Personal Weather Stations






























Interactive Weather Map
Tropical Storm Tracking
New forecast layout! Learn more

10-Day Weather Forecast

Advertisements
Track Severe Weather on mobile